Relevés horaires Oostende (Belgique)


Relevés horaires à Oostende - Lundi 13 Déc. 2021
Heure UTC1 Température [°C] Vent [km/h] Hum. [%] Pres.4 [hPa] Visi. [Km] Nébu. [octa] Préc.5 [mm] Cond.
2m. Res. Ros. Dir.2 Vit. Moy. Raf.3
23:00 7.4 6.6 6.2 SSO 5.6 7.4 7.4 92 1027.2(0.2/3h) 10 7/8 -- --
22:00 7.6 6.8 6.8 SSO 5.6 7.4 9.3 95 1027.3(0.4/3h) 9 7/8 -- --
21:00 7.8 7.1 6.5 SSO 5.6 7.4 9.3 91 1026.9(0.1/3h) 15 7/8 -- --
20:00 8.0 7.3 6.2 SSO 5.6 7.4 9.3 88 1027(0.2/3h) 25 7/8 -- --
19:00 8.2 7.5 6.5 S 5.6 7.4 9.3 89 1026.9(0.1/3h) 15 7/8 -- --
18:00 8.5 7.4 6.9 S 7.4 -- -- 90 1026.8(0.0/3h) 20 7/8 0/12h
--
17:00 8.6 8 6.4 S 5.6 7.4 9.3 86 1026.8(0.2/3h) 30 7/8 -- --
16:00 8.9 7.9 6.2 SSO 7.4 7.4 11.1 83 1026.8(0.1/3h) 30 7/8 -- --
15:00 9.2 8.7 7.3 S 5.6 9.3 13.0 88 1026.7(0.0/3h) 18 7/8 -- --
14:00 9.2 8.2 7.5 SSO 7.4 7.4 11.1 89 1026.6(-0.3/3h) 18 7/8 -- --
13:00 9.3 8.3 7.4 SSO 7.4 9.3 13.0 88 1026.7(-0.2/3h) 25 7/8 -- --
12:00 9.3 7.9 7.6 SSO 9.3 -- -- 89 1026.7(0.5/3h) 20 7/8 0/6h
--
11:00 9.1 8.6 7.4 SSO 5.6 7.4 11.1 89 1026.9(1.1/3h) 18 7/8 -- --
10:00 8.9 7.9 7.3 SSO 7.4 7.4 11.1 90 1026.8(1.4/3h) 18 7/8 -- --
09:00 8.8 7.7 7.1 S 7.4 9.3 13.0 89 1026.2(1.0/3h) 20 7/8 -- --
08:00 8.7 7.6 7.0 S 7.4 9.3 13.0 89 1025.9(0.9/3h) 35 7/8 -- --
07:00 8.9 7.9 6.9 S 7.4 9.3 13.0 87 1025.4(-0.2/3h) 35 7/8 -- --
06:00 9.2 7.8 6.8 S 9.3 -- -- 85 1025.2(-0.2/3h) 25 7/8 0/12h
--
05:00 9.1 8.1 6.9 S 7.4 9.3 13.0 86 1025(-0.3/3h) 25 7/8 -- --
04:00 9.0 8 7.3 S 7.4 7.4 11.1 89 1025.2(0.1/3h) 25 7/8 -- --
03:00 9.2 8.7 6.9 SSO 5.6 11.1 14.8 86 1025.4(0.3/3h) 25 7/8 -- --
02:00 9.6 8 7.3 SSO 11.1 11.1 14.8 86 1025.3(0.0/3h) 25 7/8 -- --
01:00 9.5 8.6 8.1 SSO 7.4 7.4 13.0 91 1025.1(0.0/3h) 25 7/8 -- --
00:00 9.5 8.6 8.0 S 7.4 -- -- 90 1025.1(0.0/3h) 25 7/8 0/6h
Etat du ciel inchangé

1 Coordinated Universal Time. Actuellement il est 16:00 locale et 14:00 UTC.

2 Le vent souffle depuis la direction indiquée vers la direction oposée.

3 Les rafales max. sont disponible 40 min après l'heure du relevé.

4 Pour les stations d'altitude (plus de 600m) le géopotentiel du niveau le plus proche de la pression obligatoire est indiqué.

5 Les stations disposant d'un diffuseur peuvent indiquer "trace". Cela signifie que des précipitations ont touchés le sol mais que la quantité est inférieure à 0.1 mm.

Récapitulatif de la journée
Température [°C] Vent [km/h] Ensoleillement4 [h] Precipitations totale5 [mm] Pression [Hpa]
Min1 Max.2 Moy.3 Max. Min Max.
9.0 9.4 8.3 14.8 0 h 0 min 0 1025.0 1027.3

1 Température minimale relevée entre 18:00 UTC la veille et 18:00 UTC le jour donné.

2 Température maximale relevée entre 06:00 UTC le jour donné et 06:00 UTC le lendemain.

3 Vent moyen de la journée basé sur les relevés horaires.

4 Ensoleillement en heures relevé entre 06:00 UTC la veille et 06:00 UTC le jour donné.

5 Précipitations totales tombées entre 06:00 UTC la jour donné et 06:00 UTC le lendemain.

Graphiques horaires